Strona główna
METAR-TAF:

METAR-TAF

Lotnisko :

Butler, Pensylwania, Stany Zjednoczone

Szerokość geograficzna: 40-47N, Długość geograficzna: 079-57W, wysokość: 380 m

Aktualna obserwacja pogody

Raport powstał 22 minut temu, godzina 08:39 UTC
Wiatr 9 kt od zachodnio-południowy zachód
Temperatura 2°C
Wilgotność 100%
Ciśnienie 1006 hPa
Widzialność: 8.0 km
Zachmurzenie całkowite na wysokości 1500 ft
zamglenie

METAR: KBTP 150839Z AUTO 25009KT 5SM BR OVC015 02/02 A2971 RMK AO2 FZRANO

czas: 04:01 (09:01 UTC)


TAF: brakujący

Obserwacja i prognoza pogody dla ponad 4000 lotnisk (raport METAR i TAF).

Dostępne stacje oznaczono żółtymi i czerwonymi punktami na mapie.

Najedź kursorem aby zobaczyć nazwę stacji.

Kliknij aby zobaczyć obserwacje i prognozy pogody.

Aby zmienić mapę: kliknij na zielony przycisk z czarnym krzyżykiem, aby powiększyć; na zielony przycisk z myślnikiem, aby pomniejszyć; na zielone strzałki, aby przejść do map sąsiednich.


METAR-TAF: